Time;durP1;ratioP1;P1;durP2;ratioP2;P2;SDS_P1;SDS_P2;PMS_P1;PMS_P2;Temp;Humidity;BMP_temperature;BMP_pressure;BME280_temperature;BME280_humidity;BME280_pressure;Samples;Min_cycle;Max_cycle;Signal;HPM_P1;HPM_P2
2021/07/22 00:01:47;;;;;;;52.00;32.30;;;16.30;99.90;;;;;;4196129;28;20099;-85
2021/07/22 00:03:48;;;;;;;45.97;31.33;;;16.30;99.90;;;;;;4196362;28;20033;-85
2021/07/22 00:05:49;;;;;;;49.10;31.58;;;16.30;99.90;;;;;;4191409;28;20148;-84
2021/07/22 00:07:50;;;;;;;55.38;32.40;;;16.30;99.90;;;;;;4210740;28;20028;-84
2021/07/22 00:09:52;;;;;;;51.15;32.47;;;16.40;99.90;;;;;;4195993;28;20021;-84
2021/07/22 00:11:52;;;;;;;48.35;31.20;;;16.40;99.90;;;;;;4195796;28;20035;-84
2021/07/22 00:13:54;;;;;;;51.78;30.65;;;16.50;99.90;;;;;;4196629;28;20455;-85
2021/07/22 00:15:54;;;;;;;45.25;31.55;;;16.60;99.90;;;;;;4214187;28;20031;-85
2021/07/22 00:17:55;;;;;;;52.33;31.02;;;16.60;99.90;;;;;;4183493;28;20480;-83
2021/07/22 00:19:57;;;;;;;43.17;30.33;;;16.60;99.90;;;;;;4179301;28;20047;-84
2021/07/22 00:21:58;;;;;;;47.75;30.80;;;16.50;99.90;;;;;;4191905;28;20025;-84
2021/07/22 00:23:59;;;;;;;48.53;30.00;;;16.50;99.90;;;;;;4186317;28;20551;-85
2021/07/22 00:26:06;;;;;;;47.33;30.98;;;16.60;99.90;;;;;;4188084;28;20059;-84
2021/07/22 00:28:07;;;;;;;49.30;31.40;;;16.60;99.90;;;;;;4191950;28;20036;-85
2021/07/22 00:30:08;;;;;;;49.42;30.48;;;16.60;99.90;;;;;;4197633;28;20028;-84
2021/07/22 00:32:10;;;;;;;49.83;30.25;;;16.50;99.90;;;;;;4193819;28;20054;-84
2021/07/22 00:34:13;;;;;;;53.17;32.35;;;16.40;99.90;;;;;;4184830;28;20029;-84
2021/07/22 00:36:14;;;;;;;49.15;32.38;;;16.40;99.90;;;;;;4196828;28;20021;-85
2021/07/22 00:38:15;;;;;;;48.75;30.55;;;16.40;99.90;;;;;;4194919;28;20042;-85
2021/07/22 00:40:16;;;;;;;46.05;29.58;;;16.40;99.90;;;;;;4194391;28;20031;-85
2021/07/22 00:42:17;;;;;;;47.63;32.05;;;16.30;99.90;;;;;;4191176;28;20100;-84
2021/07/22 00:44:18;;;;;;;53.28;33.45;;;16.30;99.90;;;;;;4185743;28;20485;-84
2021/07/22 00:46:18;;;;;;;49.97;30.50;;;16.20;99.90;;;;;;4194552;28;20503;-84
2021/07/22 00:48:19;;;;;;;49.90;31.73;;;16.20;99.90;;;;;;4196788;28;20127;-84
2021/07/22 00:50:20;;;;;;;49.25;31.30;;;16.10;99.90;;;;;;4182373;28;20032;-84
2021/07/22 00:52:21;;;;;;;44.72;29.70;;;16.10;99.90;;;;;;4195387;28;20488;-85
2021/07/22 00:54:21;;;;;;;48.78;31.33;;;16.00;99.90;;;;;;4194423;28;20052;-83
2021/07/22 00:56:22;;;;;;;47.67;29.98;;;16.00;99.90;;;;;;4196113;28;20086;-84
2021/07/22 00:58:23;;;;;;;44.25;28.80;;;15.90;99.90;;;;;;4193361;28;20760;-84
2021/07/22 01:00:23;;;;;;;51.88;33.10;;;15.90;99.90;;;;;;4183930;28;20492;-84
2021/07/22 01:02:24;;;;;;;56.30;33.38;;;15.80;99.90;;;;;;4195557;28;20769;-84
2021/07/22 01:04:25;;;;;;;56.10;31.70;;;15.80;99.90;;;;;;4196962;28;20480;-84
2021/07/22 01:06:26;;;;;;;52.30;32.55;;;15.80;99.90;;;;;;4197048;28;20108;-83
2021/07/22 01:08:28;;;;;;;57.88;34.17;;;15.70;99.90;;;;;;4197483;28;20471;-84
2021/07/22 01:10:31;;;;;;;54.65;31.30;;;15.70;99.90;;;;;;4195952;28;20102;-83
2021/07/22 01:12:32;;;;;;;61.70;33.45;;;15.70;99.90;;;;;;4195859;28;20446;-84
2021/07/22 01:14:32;;;;;;;63.53;33.90;;;15.60;99.90;;;;;;4195586;28;20036;-84
2021/07/22 01:16:33;;;;;;;57.53;33.47;;;15.60;99.90;;;;;;4180713;28;20384;-84
2021/07/22 01:18:33;;;;;;;57.15;33.35;;;15.60;99.90;;;;;;4194798;28;20040;-84
2021/07/22 01:20:34;;;;;;;59.55;34.50;;;15.60;99.90;;;;;;4195230;28;20388;-85
2021/07/22 01:22:35;;;;;;;58.10;35.35;;;15.60;99.90;;;;;;4194320;28;20067;-83
2021/07/22 01:24:36;;;;;;;59.20;35.42;;;15.60;99.90;;;;;;4183312;28;20060;-84
2021/07/22 01:26:38;;;;;;;67.45;37.40;;;15.50;99.90;;;;;;4191492;28;20032;-85
2021/07/22 01:28:47;;;;;;;56.38;35.33;;;15.50;99.90;;;;;;4180782;28;20393;-85
2021/07/22 01:30:47;;;;;;;60.42;35.63;;;15.50;99.90;;;;;;4190274;28;20108;-86
2021/07/22 01:32:49;;;;;;;64.85;34.85;;;15.40;99.90;;;;;;4187997;28;20032;-85
2021/07/22 01:34:50;;;;;;;65.00;34.78;;;15.50;99.90;;;;;;4195276;28;20072;-84
2021/07/22 01:36:51;;;;;;;61.60;35.05;;;15.40;99.90;;;;;;4181304;28;20033;-85
2021/07/22 01:38:53;;;;;;;60.80;34.13;;;15.50;99.90;;;;;;4182743;28;20041;-86
2021/07/22 01:40:54;;;;;;;67.32;36.65;;;15.50;99.90;;;;;;4196935;28;20108;-86
2021/07/22 01:42:54;;;;;;;61.30;35.05;;;15.50;99.90;;;;;;4194827;28;20471;-86
2021/07/22 01:44:55;;;;;;;70.10;38.10;;;15.50;99.90;;;;;;4195321;28;20103;-85
2021/07/22 01:46:56;;;;;;;68.65;34.67;;;15.60;99.90;;;;;;4181897;28;20037;-85
2021/07/22 01:49:03;;;;;;;67.28;37.08;;;15.60;99.90;;;;;;4194063;28;20535;-85
2021/07/22 01:51:07;;;;;;;72.63;38.38;;;15.60;99.90;;;;;;4195223;28;20128;-85
2021/07/22 01:53:07;;;;;;;64.35;35.47;;;15.50;99.90;;;;;;4212146;28;20070;-84
2021/07/22 01:55:09;;;;;;;59.80;36.67;;;15.50;99.90;;;;;;4195331;28;20495;-84
2021/07/22 01:57:10;;;;;;;62.42;35.85;;;15.50;99.90;;;;;;4192605;28;20040;-84
2021/07/22 01:59:11;;;;;;;62.80;35.38;;;15.50;99.90;;;;;;4192874;28;20459;-86
2021/07/22 02:01:11;;;;;;;61.10;35.38;;;15.50;99.90;;;;;;4184341;28;20059;-88
2021/07/22 02:03:12;;;;;;;60.53;34.22;;;15.50;99.90;;;;;;4196712;28;20040;-84
2021/07/22 02:05:12;;;;;;;58.75;34.25;;;15.50;99.90;;;;;;4197273;28;20036;-86
2021/07/22 02:07:19;;;;;;;63.95;35.08;;;15.50;99.90;;;;;;4198180;28;20111;-84
2021/07/22 02:09:20;;;;;;;66.45;33.90;;;15.50;99.90;;;;;;4200054;28;20047;-85
2021/07/22 02:11:20;;;;;;;63.60;33.65;;;15.40;99.90;;;;;;4189469;28;20024;-85
2021/07/22 02:13:21;;;;;;;58.03;32.47;;;15.40;99.90;;;;;;4209125;28;20044;-85
2021/07/22 02:15:21;;;;;;;52.67;32.97;;;15.40;99.90;;;;;;4187488;28;20052;-85
2021/07/22 02:17:22;;;;;;;60.28;34.17;;;15.40;99.90;;;;;;4192697;28;20032;-85
2021/07/22 02:19:22;;;;;;;66.65;34.42;;;15.30;99.90;;;;;;4190205;28;20028;-85
2021/07/22 02:21:23;;;;;;;63.13;33.17;;;15.30;99.90;;;;;;4197947;28;20044;-85
2021/07/22 02:23:24;;;;;;;57.95;32.78;;;15.20;99.90;;;;;;4194676;28;20400;-86
2021/07/22 02:25:24;;;;;;;66.13;34.97;;;15.20;99.90;;;;;;4190608;28;20458;-82
2021/07/22 02:27:26;;;;;;;56.00;32.40;;;15.20;99.90;;;;;;4190767;28;20566;-83
2021/07/22 02:29:26;;;;;;;68.13;34.90;;;15.20;99.90;;;;;;4197647;28;20476;-85
2021/07/22 02:31:28;;;;;;;61.40;33.75;;;15.20;99.90;;;;;;4198860;28;20059;-85
2021/07/22 02:33:28;;;;;;;68.43;35.00;;;15.20;99.90;;;;;;4197770;28;20024;-85
2021/07/22 02:35:29;;;;;;;59.13;33.58;;;15.20;99.90;;;;;;4191416;28;20099;-84
2021/07/22 02:37:30;;;;;;;67.80;37.08;;;15.10;99.90;;;;;;4189617;28;20032;-84
2021/07/22 02:39:31;;;;;;;66.70;35.78;;;15.20;99.90;;;;;;4190694;28;20025;-84
2021/07/22 02:41:32;;;;;;;58.80;32.78;;;15.10;99.90;;;;;;4193661;28;20016;-85
2021/07/22 02:43:33;;;;;;;62.20;33.88;;;15.10;99.90;;;;;;4193804;28;20043;-85
2021/07/22 02:45:37;;;;;;;62.17;33.97;;;15.10;99.90;;;;;;4194788;28;20029;-85
2021/07/22 02:47:37;;;;;;;66.03;33.97;;;15.10;99.90;;;;;;4194391;28;20036;-85
2021/07/22 02:49:39;;;;;;;65.90;35.25;;;15.10;99.90;;;;;;4190713;28;20557;-85
2021/07/22 02:51:40;;;;;;;69.18;35.50;;;15.10;99.90;;;;;;4196482;28;20037;-85
2021/07/22 02:53:41;;;;;;;61.00;34.30;;;15.00;99.90;;;;;;4185455;28;20488;-86
2021/07/22 02:55:42;;;;;;;70.82;34.22;;;15.00;99.90;;;;;;4183297;28;20039;-85
2021/07/22 02:57:43;;;;;;;63.88;35.05;;;14.90;99.90;;;;;;4196652;28;20167;-86
2021/07/22 02:59:44;;;;;;;67.07;34.15;;;14.90;99.90;;;;;;4195183;28;20491;-86
2021/07/22 03:01:44;;;;;;;67.22;35.63;;;14.90;99.90;;;;;;4198327;28;20058;-83
2021/07/22 03:03:46;;;;;;;65.53;35.83;;;14.80;99.90;;;;;;4196943;28;20032;-85
2021/07/22 03:05:46;;;;;;;64.68;34.95;;;14.80;99.90;;;;;;4196150;28;20056;-85
2021/07/22 03:07:47;;;;;;;64.20;33.13;;;14.80;99.90;;;;;;4186924;28;20436;-85
2021/07/22 03:09:48;;;;;;;64.78;33.63;;;14.70;99.90;;;;;;4196428;28;20428;-86
2021/07/22 03:11:51;;;;;;;62.78;31.20;;;14.70;99.90;;;;;;4197168;28;20123;-85
2021/07/22 03:13:53;;;;;;;71.15;36.08;;;14.70;99.90;;;;;;4192518;28;20022;-86
2021/07/22 03:15:54;;;;;;;64.55;34.08;;;14.70;99.90;;;;;;4182063;28;20091;-86
2021/07/22 03:17:54;;;;;;;67.47;34.55;;;14.60;99.90;;;;;;4192124;28;20467;-86
2021/07/22 03:19:55;;;;;;;72.68;36.08;;;14.60;99.90;;;;;;4201542;28;20127;-87
2021/07/22 03:21:56;;;;;;;71.82;36.28;;;14.60;99.90;;;;;;4195371;28;20104;-86
2021/07/22 03:23:57;;;;;;;69.30;35.88;;;14.60;99.90;;;;;;4196667;28;20037;-86
2021/07/22 03:25:57;;;;;;;67.38;36.28;;;14.60;99.90;;;;;;4193775;28;20116;-84
2021/07/22 03:28:02;;;;;;;66.43;34.42;;;14.60;99.90;;;;;;4213686;28;20031;-85
2021/07/22 03:30:04;;;;;;;71.07;35.28;;;14.60;99.90;;;;;;4214729;28;20028;-84
2021/07/22 03:32:07;;;;;;;74.30;36.50;;;14.60;99.90;;;;;;4214227;28;20036;-84
2021/07/22 03:34:07;;;;;;;67.70;36.30;;;14.60;99.90;;;;;;4181541;28;20040;-85
2021/07/22 03:36:08;;;;;;;66.47;34.65;;;14.60;99.90;;;;;;4213321;28;20032;-84
2021/07/22 03:38:09;;;;;;;73.70;36.05;;;14.60;99.90;;;;;;4214199;28;20024;-85
2021/07/22 03:40:10;;;;;;;65.60;35.03;;;14.60;99.90;;;;;;4195625;28;20338;-84
2021/07/22 03:42:12;;;;;;;75.80;37.08;;;14.70;99.90;;;;;;4214587;28;20033;-87
2021/07/22 03:44:16;;;;;;;68.85;35.70;;;14.60;99.90;;;;;;4214692;28;20036;-86
2021/07/22 03:46:17;;;;;;;65.90;33.28;;;14.60;99.90;;;;;;4196686;28;20063;-87
2021/07/22 03:48:18;;;;;;;61.03;32.85;;;14.60;99.90;;;;;;4189698;28;20508;-86
2021/07/22 03:50:18;;;;;;;61.13;32.95;;;14.60;99.90;;;;;;4190250;28;20039;-86
2021/07/22 03:52:19;;;;;;;66.07;34.72;;;14.50;99.90;;;;;;4214556;28;20085;-86
2021/07/22 03:54:20;;;;;;;70.07;34.95;;;14.50;99.90;;;;;;4198842;28;20483;-86
2021/07/22 03:56:21;;;;;;;68.97;33.60;;;14.50;99.90;;;;;;4198084;28;20040;-86
2021/07/22 03:58:21;;;;;;;69.65;36.63;;;14.50;99.90;;;;;;4186098;28;20047;-87
2021/07/22 04:00:25;;;;;;;74.40;34.20;;;14.50;99.90;;;;;;4196468;28;20077;-86
2021/07/22 04:02:26;;;;;;;71.30;32.72;;;14.40;99.90;;;;;;4196242;28;20031;-87
2021/07/22 04:04:26;;;;;;;70.18;33.85;;;14.50;99.90;;;;;;4182621;28;20104;-87
2021/07/22 04:06:27;;;;;;;71.80;34.67;;;14.40;99.90;;;;;;4201015;28;20021;-87
2021/07/22 04:08:35;;;;;;;74.75;34.95;;;14.40;99.90;;;;;;4196670;28;20023;-86
2021/07/22 04:10:36;;;;;;;61.95;32.45;;;14.40;99.90;;;;;;4188750;28;20475;-86
2021/07/22 04:12:36;;;;;;;66.22;32.53;;;14.40;99.90;;;;;;4196200;28;20021;-86
2021/07/22 04:14:37;;;;;;;66.07;32.88;;;14.40;99.90;;;;;;4213981;28;20047;-87
2021/07/22 04:16:38;;;;;;;65.32;32.97;;;14.40;99.90;;;;;;4214569;28;20024;-86
2021/07/22 04:18:39;;;;;;;71.13;32.60;;;14.40;99.90;;;;;;4214427;28;20123;-86
2021/07/22 04:20:40;;;;;;;63.15;33.30;;;14.40;99.90;;;;;;4213993;28;20392;-86
2021/07/22 04:22:40;;;;;;;67.07;34.60;;;14.40;99.90;;;;;;4196025;28;20032;-86
2021/07/22 04:24:41;;;;;;;66.55;33.10;;;14.40;99.90;;;;;;4186495;28;20029;-86
2021/07/22 04:26:43;;;;;;;64.57;33.17;;;14.50;99.90;;;;;;4206069;28;20028;-87
2021/07/22 04:28:44;;;;;;;78.05;34.13;;;14.50;99.90;;;;;;4193650;28;20029;-86
2021/07/22 04:30:50;;;;;;;72.55;32.90;;;14.50;99.90;;;;;;4199051;28;20036;-81
2021/07/22 04:32:55;;;;;;;68.82;33.38;;;14.60;99.90;;;;;;4212439;28;20409;-84
2021/07/22 04:34:56;;;;;;;61.88;32.38;;;14.70;99.90;;;;;;4196418;28;20036;-85
2021/07/22 04:36:57;;;;;;;61.67;32.25;;;14.80;99.90;;;;;;4214208;28;20028;-85
2021/07/22 04:38:57;;;;;;;57.22;32.13;;;14.80;99.90;;;;;;4196659;28;20021;-85
2021/07/22 04:40:58;;;;;;;59.17;31.77;;;14.80;99.90;;;;;;4196206;28;20047;-84
2021/07/22 04:43:02;;;;;;;60.67;32.97;;;14.80;99.90;;;;;;4195216;28;20341;-84
2021/07/22 04:45:03;;;;;;;64.07;32.10;;;14.80;99.90;;;;;;4190818;28;20037;-86
2021/07/22 04:47:03;;;;;;;63.38;33.20;;;14.80;99.90;;;;;;4196202;28;20060;-86
2021/07/22 04:49:05;;;;;;;61.78;32.78;;;14.90;99.90;;;;;;4214372;28;20036;-85
2021/07/22 04:51:12;;;;;;;62.03;32.75;;;14.90;99.90;;;;;;4213453;28;20057;-86
2021/07/22 04:53:13;;;;;;;56.80;31.95;;;14.90;99.90;;;;;;4213455;28;20028;-86
2021/07/22 04:55:14;;;;;;;60.03;32.08;;;15.00;99.90;;;;;;4196342;28;20067;-86
2021/07/22 04:57:15;;;;;;;59.03;32.67;;;15.00;99.90;;;;;;4214489;28;20386;-86
2021/07/22 04:59:15;;;;;;;56.03;32.47;;;15.00;99.90;;;;;;4196140;28;20070;-86
2021/07/22 05:01:17;;;;;;;63.25;31.15;;;15.10;99.90;;;;;;4181397;28;20320;-86
2021/07/22 05:03:18;;;;;;;61.58;33.38;;;15.10;99.90;;;;;;4213100;28;20028;-84
2021/07/22 05:05:19;;;;;;;56.88;31.27;;;15.20;99.90;;;;;;4214020;28;20429;-86
2021/07/22 05:07:19;;;;;;;58.08;32.05;;;15.40;99.90;;;;;;4214169;28;20029;-86
2021/07/22 05:09:20;;;;;;;53.13;31.55;;;15.30;99.90;;;;;;4196163;28;20040;-86
2021/07/22 05:11:21;;;;;;;57.70;30.83;;;15.40;99.90;;;;;;4195513;28;20496;-85
2021/07/22 05:13:21;;;;;;;53.53;31.15;;;15.40;99.90;;;;;;4196438;28;20041;-85
2021/07/22 05:15:22;;;;;;;52.13;31.63;;;15.40;99.90;;;;;;4195860;28;20472;-83
2021/07/22 05:17:24;;;;;;;47.83;28.98;;;15.40;99.90;;;;;;4196152;28;20119;-84
2021/07/22 05:19:24;;;;;;;51.90;30.20;;;15.40;99.90;;;;;;4217022;28;20051;-83
2021/07/22 05:21:25;;;;;;;51.80;28.88;;;15.40;99.90;;;;;;4193289;28;20124;-87
2021/07/22 05:23:26;;;;;;;53.70;30.10;;;15.40;99.90;;;;;;4192611;28;20480;-83
2021/07/22 05:25:27;;;;;;;49.40;29.88;;;15.50;99.90;;;;;;4209307;28;20035;-85
2021/07/22 05:27:27;;;;;;;45.08;28.67;;;15.60;99.90;;;;;;4188162;28;20028;-84
2021/07/22 05:29:28;;;;;;;51.17;29.00;;;15.70;99.90;;;;;;4183915;28;20044;-84
2021/07/22 05:31:28;;;;;;;45.42;27.42;;;15.80;99.90;;;;;;4191307;28;20544;-86
2021/07/22 05:33:30;;;;;;;46.13;28.70;;;15.90;99.90;;;;;;4211519;28;20494;-84
2021/07/22 05:35:32;;;;;;;47.58;28.75;;;16.10;99.90;;;;;;4194593;28;20032;-84
2021/07/22 05:37:32;;;;;;;44.97;28.33;;;16.20;99.90;;;;;;4209875;28;20055;-84
2021/07/22 05:39:34;;;;;;;44.13;28.98;;;16.30;99.90;;;;;;4200827;28;20081;-85
2021/07/22 05:41:34;;;;;;;38.05;25.67;;;16.40;99.90;;;;;;4198083;28;20410;-84
2021/07/22 05:43:36;;;;;;;37.55;24.83;;;16.40;99.90;;;;;;4189225;28;20040;-84
2021/07/22 05:45:37;;;;;;;52.40;27.73;;;16.60;99.90;;;;;;4192780;28;20025;-85
2021/07/22 05:47:38;;;;;;;46.72;26.60;;;16.60;99.90;;;;;;4194463;28;20020;-82
2021/07/22 05:49:38;;;;;;;39.97;26.15;;;16.60;99.90;;;;;;4211524;28;20032;-83
2021/07/22 05:51:39;;;;;;;34.45;25.75;;;16.60;99.90;;;;;;4189539;28;20427;-83
2021/07/22 05:53:40;;;;;;;34.90;25.27;;;16.70;99.90;;;;;;4197392;28;20036;-84
2021/07/22 05:55:41;;;;;;;40.97;26.70;;;16.70;99.90;;;;;;4216290;28;20020;-84
2021/07/22 05:57:43;;;;;;;33.65;25.48;;;16.70;99.90;;;;;;4203578;28;20036;-84
2021/07/22 05:59:46;;;;;;;40.05;26.08;;;16.70;99.90;;;;;;4196118;28;20051;-83
2021/07/22 06:01:46;;;;;;;35.17;25.73;;;16.70;99.90;;;;;;4198916;28;20064;-85
2021/07/22 06:03:47;;;;;;;41.25;26.92;;;16.80;99.90;;;;;;4189717;28;20484;-86
2021/07/22 06:05:48;;;;;;;41.10;27.83;;;16.80;99.90;;;;;;4198158;28;20028;-85
2021/07/22 06:07:49;;;;;;;36.63;23.73;;;16.90;99.90;;;;;;4215033;28;20043;-85
2021/07/22 06:09:50;;;;;;;33.40;23.83;;;17.00;99.90;;;;;;4197670;28;20025;-84
2021/07/22 06:11:51;;;;;;;35.80;25.05;;;17.00;99.90;;;;;;4216533;28;20060;-85
2021/07/22 06:13:54;;;;;;;35.67;24.63;;;17.10;99.90;;;;;;4221083;28;20314;-85
2021/07/22 06:15:55;;;;;;;36.60;26.38;;;17.10;99.90;;;;;;4215873;28;20081;-86
2021/07/22 06:17:56;;;;;;;33.88;24.92;;;17.10;99.90;;;;;;4197974;28;20107;-84
2021/07/22 06:19:57;;;;;;;31.27;24.85;;;17.10;99.90;;;;;;4207271;28;20482;-85
2021/07/22 06:21:59;;;;;;;32.72;23.65;;;17.30;99.90;;;;;;4212232;28;20028;-85
2021/07/22 06:24:00;;;;;;;32.88;24.98;;;17.30;99.90;;;;;;4197462;28;20037;-83
2021/07/22 06:26:02;;;;;;;33.03;23.75;;;17.40;99.90;;;;;;4215487;28;20051;-84
2021/07/22 06:28:03;;;;;;;30.58;25.05;;;17.40;99.90;;;;;;4205343;28;20165;-83
2021/07/22 06:30:05;;;;;;;31.88;24.45;;;17.50;99.90;;;;;;4202560;28;20033;-84
2021/07/22 06:32:07;;;;;;;28.75;24.02;;;17.50;99.90;;;;;;4216100;28;20117;-85
2021/07/22 06:34:08;;;;;;;29.77;23.45;;;17.50;99.90;;;;;;4196993;28;20071;-84
2021/07/22 06:36:08;;;;;;;32.53;22.63;;;17.50;99.90;;;;;;4215546;28;20020;-84
2021/07/22 06:38:09;;;;;;;37.40;23.80;;;17.60;99.90;;;;;;4188858;28;20502;-84
2021/07/22 06:40:10;;;;;;;35.15;25.40;;;17.60;99.90;;;;;;4190943;28;20025;-84
2021/07/22 06:42:11;;;;;;;28.30;23.33;;;17.80;99.90;;;;;;4215397;28;20024;-84
2021/07/22 06:44:12;;;;;;;29.38;22.45;;;17.80;99.90;;;;;;4210180;28;20027;-83
2021/07/22 06:46:13;;;;;;;30.05;24.48;;;17.90;99.90;;;;;;4192135;28;20037;-84
2021/07/22 06:48:14;;;;;;;29.58;22.52;;;18.00;99.90;;;;;;4201679;28;20044;-83
2021/07/22 06:50:16;;;;;;;28.15;22.77;;;18.10;99.90;;;;;;4195455;28;20032;-83
2021/07/22 06:52:16;;;;;;;26.80;21.67;;;18.20;99.90;;;;;;4191819;28;20028;-84
2021/07/22 06:54:18;;;;;;;26.27;20.85;;;18.30;99.90;;;;;;4210969;28;20037;-82
2021/07/22 06:56:19;;;;;;;25.00;20.73;;;18.40;99.90;;;;;;4195728;28;20491;-82
2021/07/22 06:58:19;;;;;;;26.48;20.63;;;18.50;99.90;;;;;;4197045;28;20032;-83
2021/07/22 07:00:22;;;;;;;24.88;20.33;;;18.50;99.90;;;;;;4210835;28;20359;-84
2021/07/22 07:02:23;;;;;;;24.58;20.38;;;18.50;99.90;;;;;;4209863;28;20032;-82
2021/07/22 07:04:24;;;;;;;26.15;21.55;;;18.50;99.90;;;;;;4184160;28;20107;-84
2021/07/22 07:06:25;;;;;;;26.17;21.52;;;18.60;99.90;;;;;;4211388;28;20038;-83
2021/07/22 07:08:27;;;;;;;26.65;21.23;;;18.70;99.90;;;;;;4195181;28;20021;-83
2021/07/22 07:10:28;;;;;;;23.27;18.58;;;18.80;99.90;;;;;;4194241;28;20104;-84
2021/07/22 07:12:30;;;;;;;24.20;19.42;;;18.90;99.90;;;;;;4211915;28;20028;-84
2021/07/22 07:14:34;;;;;;;22.42;19.25;;;19.00;99.90;;;;;;4194964;28;20575;-82
2021/07/22 07:16:38;;;;;;;22.70;18.67;;;19.10;99.90;;;;;;4200635;28;20032;-82
2021/07/22 07:18:39;;;;;;;26.48;18.42;;;19.10;99.90;;;;;;4208272;28;20683;-82
2021/07/22 07:20:39;;;;;;;20.65;15.60;;;19.20;99.90;;;;;;4213559;28;20044;-84
2021/07/22 07:22:41;;;;;;;25.25;17.85;;;19.30;99.90;;;;;;4196361;28;20036;-83
2021/07/22 07:24:46;;;;;;;19.00;15.93;;;19.40;99.90;;;;;;4214743;28;20028;-81
2021/07/22 07:26:48;;;;;;;18.08;15.55;;;19.50;99.90;;;;;;4184860;28;20029;-83
2021/07/22 07:28:54;;;;;;;20.95;17.13;;;19.70;99.90;;;;;;4194207;28;20036;-82
2021/07/22 07:30:57;;;;;;;17.30;15.50;;;19.80;99.90;;;;;;4207850;28;20032;-83
2021/07/22 07:32:59;;;;;;;18.30;14.18;;;20.00;99.90;;;;;;4186246;28;20025;-81
2021/07/22 07:35:00;;;;;;;16.30;13.80;;;20.10;99.90;;;;;;4191469;28;20032;-82
2021/07/22 07:37:02;;;;;;;16.05;13.68;;;20.20;99.90;;;;;;4212232;28;20120;-79
2021/07/22 07:39:03;;;;;;;16.00;12.90;;;20.10;99.90;;;;;;4190811;28;20029;-80
2021/07/22 07:41:03;;;;;;;15.23;13.43;;;20.00;99.90;;;;;;4212181;28;20069;-80
2021/07/22 07:43:15;;;;;;;18.35;13.02;;;20.00;99.90;;;;;;4193013;28;20043;-84
2021/07/22 07:45:16;;;;;;;18.27;13.38;;;20.10;99.90;;;;;;4190226;28;20036;-83
2021/07/22 07:47:18;;;;;;;15.25;13.10;;;20.20;99.90;;;;;;4189907;28;20103;-82
2021/07/22 07:49:20;;;;;;;14.70;12.32;;;20.20;99.90;;;;;;4191641;28;20104;-83
2021/07/22 07:51:21;;;;;;;16.48;13.27;;;20.30;99.90;;;;;;4208297;28;20036;-83
2021/07/22 07:53:23;;;;;;;14.68;13.13;;;20.40;99.90;;;;;;4194358;28;20067;-82
2021/07/22 07:55:24;;;;;;;21.27;16.20;;;20.40;99.90;;;;;;4212827;28;20076;-82
2021/07/22 07:57:24;;;;;;;18.90;13.68;;;20.50;99.90;;;;;;4204127;28;20717;-83
2021/07/22 07:59:25;;;;;;;19.75;16.38;;;20.60;99.90;;;;;;4212413;28;20024;-82
2021/07/22 08:01:29;;;;;;;19.27;16.60;;;20.80;99.90;;;;;;4187747;28;20386;-83
2021/07/22 08:03:29;;;;;;;20.00;15.38;;;20.80;99.90;;;;;;4184521;28;20048;-82
2021/07/22 08:05:31;;;;;;;16.65;14.38;;;20.90;99.90;;;;;;4187218;28;20492;-83
2021/07/22 08:07:34;;;;;;;18.25;14.82;;;21.00;99.90;;;;;;4183922;28;20043;-83
2021/07/22 08:09:34;;;;;;;16.55;13.63;;;21.50;99.90;;;;;;4191106;28;20437;-83
2021/07/22 08:11:35;;;;;;;17.67;13.13;;;21.90;99.90;;;;;;4213440;28;20032;-82
2021/07/22 08:13:36;;;;;;;14.43;12.15;;;22.30;99.90;;;;;;4192267;28;20033;-83
2021/07/22 08:15:40;;;;;;;16.45;11.38;;;22.70;99.90;;;;;;4195493;28;20159;-83
2021/07/22 08:17:42;;;;;;;15.55;9.50;;;20.90;99.90;;;;;;4210789;28;20492;-83
2021/07/22 08:19:43;;;;;;;12.15;10.82;;;22.60;99.90;;;;;;4210283;28;20435;-83
2021/07/22 08:21:43;;;;;;;12.55;10.57;;;22.50;99.90;;;;;;4209068;28;20028;-83
2021/07/22 08:23:45;;;;;;;10.90;9.77;;;22.30;99.90;;;;;;4195022;28;20033;-83
2021/07/22 08:25:47;;;;;;;11.63;9.27;;;22.20;99.90;;;;;;4191630;28;20025;-82
2021/07/22 08:27:49;;;;;;;12.60;10.23;;;22.20;99.90;;;;;;4190440;28;20471;-83
2021/07/22 08:29:50;;;;;;;11.70;10.50;;;22.20;99.90;;;;;;4187136;28;20110;-83
2021/07/22 08:31:51;;;;;;;12.70;10.25;;;22.30;99.90;;;;;;4213205;28;20016;-83
2021/07/22 08:33:54;;;;;;;14.10;10.10;;;22.00;99.90;;;;;;4207111;28;20082;-82
2021/07/22 08:35:55;;;;;;;12.05;9.95;;;22.20;99.90;;;;;;4210174;28;20058;-82
2021/07/22 08:37:56;;;;;;;11.57;9.70;;;22.20;99.90;;;;;;4192693;28;20039;-83
2021/07/22 08:40:00;;;;;;;11.05;9.95;;;22.00;99.90;;;;;;4207298;28;20028;-83
2021/07/22 08:42:04;;;;;;;11.35;9.68;;;22.70;99.90;;;;;;4194550;28;20029;-81
2021/07/22 08:44:08;;;;;;;13.80;10.80;;;22.80;99.90;;;;;;4213398;28;20040;-81
2021/07/22 08:46:10;;;;;;;11.02;9.93;;;22.60;99.90;;;;;;4209958;28;20602;-81
2021/07/22 08:48:11;;;;;;;10.00;8.77;;;22.50;99.90;;;;;;4190374;28;20037;-82
2021/07/22 08:50:13;;;;;;;13.57;9.80;;;22.40;99.90;;;;;;4213143;28;20036;-81
2021/07/22 08:52:14;;;;;;;10.25;9.07;;;22.60;99.90;;;;;;4183852;28;20433;-83
2021/07/22 08:54:16;;;;;;;9.93;8.55;;;22.70;99.90;;;;;;4209274;28;20040;-80
2021/07/22 08:56:17;;;;;;;9.88;7.93;;;23.10;99.90;;;;;;4194486;28;20067;-82
2021/07/22 08:58:18;;;;;;;9.40;7.80;;;23.50;99.90;;;;;;4212801;28;20028;-82
2021/07/22 09:00:19;;;;;;;12.55;9.15;;;23.70;99.90;;;;;;4208509;28;20119;-82
2021/07/22 09:02:22;;;;;;;10.45;8.63;;;23.80;99.90;;;;;;4207132;28;20039;-82
2021/07/22 09:04:23;;;;;;;10.85;9.75;;;24.10;99.90;;;;;;4203382;28;20380;-82
2021/07/22 09:06:23;;;;;;;13.38;11.18;;;24.40;99.90;;;;;;4194581;28;20025;-82
2021/07/22 09:08:25;;;;;;;15.80;10.30;;;24.70;99.90;;;;;;4203762;28;20028;-82
2021/07/22 09:10:26;;;;;;;11.35;10.23;;;24.50;99.90;;;;;;4194968;28;20443;-82
2021/07/22 09:12:35;;;;;;;11.82;10.32;;;24.70;99.90;;;;;;4202126;28;20078;-82
2021/07/22 09:14:36;;;;;;;11.90;10.48;;;24.90;99.90;;;;;;4211572;28;20036;-83
2021/07/22 09:16:37;;;;;;;11.95;10.45;;;24.70;99.90;;;;;;4197106;28;20054;-81
2021/07/22 09:18:44;;;;;;;11.68;10.07;;;23.90;99.90;;;;;;4198178;28;20135;-82
2021/07/22 09:20:44;;;;;;;13.38;10.70;;;23.60;99.90;;;;;;4206119;28;20152;-80
2021/07/22 09:22:45;;;;;;;12.23;9.85;;;23.40;99.90;;;;;;4187373;28;20032;-81
2021/07/22 09:24:53;;;;;;;12.00;10.80;;;23.10;99.90;;;;;;4195660;28;20032;-81
2021/07/22 09:26:56;;;;;;;11.75;10.57;;;22.90;99.90;;;;;;4195365;28;20021;-81
2021/07/22 09:29:08;;;;;;;14.10;10.73;;;23.30;99.90;;;;;;4198236;28;20036;-81
2021/07/22 09:31:09;;;;;;;13.00;10.93;;;23.60;99.90;;;;;;4197585;28;20033;-82
2021/07/22 09:33:09;;;;;;;12.93;11.55;;;23.70;99.90;;;;;;4216176;28;20534;-82
2021/07/22 09:35:12;;;;;;;12.63;10.38;;;24.00;99.90;;;;;;4198558;28;20032;-82
2021/07/22 09:37:13;;;;;;;13.23;9.95;;;24.30;99.90;;;;;;4216195;28;20375;-81
2021/07/22 09:39:25;;;;;;;11.45;9.85;;;24.60;99.90;;;;;;4197811;28;20043;-82
2021/07/22 09:41:26;;;;;;;12.88;11.65;;;25.00;99.90;;;;;;4198061;28;20108;-81
2021/07/22 09:43:37;;;;;;;12.30;9.50;;;25.00;99.90;;;;;;4216274;28;20032;-81
2021/07/22 09:45:47;;;;;;;12.00;9.85;;;25.20;99.90;;;;;;4215662;28;20027;-81
2021/07/22 09:47:48;;;;;;;12.95;9.70;;;25.00;99.90;;;;;;4181990;28;20444;-82
2021/07/22 09:49:49;;;;;;;11.55;9.98;;;25.00;99.90;;;;;;4205760;28;20024;-81
2021/07/22 09:51:49;;;;;;;13.60;9.98;;;25.50;99.90;;;;;;4213744;28;20391;-82
2021/07/22 09:54:07;;;;;;;13.75;10.85;;;25.60;99.90;;;;;;4196472;28;20033;-82
2021/07/22 09:56:08;;;;;;;13.30;9.70;;;25.40;99.90;;;;;;4195998;28;20087;-82
2021/07/22 09:58:11;;;;;;;14.32;9.40;;;25.70;99.90;;;;;;4199708;28;20024;-82
2021/07/22 10:00:13;;;;;;;11.93;9.23;;;25.80;99.90;;;;;;4189271;28;20036;-82
2021/07/22 10:02:22;;;;;;;10.10;9.07;;;26.50;99.90;;;;;;4195355;28;20515;-82
2021/07/22 10:04:24;;;;;;;11.38;10.00;;;26.40;99.90;;;;;;4193187;28;20031;-82
2021/07/22 10:06:25;;;;;;;14.15;9.63;;;26.10;99.90;;;;;;4215297;28;20055;-81
2021/07/22 10:08:28;;;;;;;10.93;9.35;;;25.30;99.90;;;;;;4208417;28;20810;-82
2021/07/22 10:10:31;;;;;;;12.70;10.35;;;24.70;99.90;;;;;;4194796;28;20143;-81
2021/07/22 10:12:34;;;;;;;11.95;9.15;;;24.40;99.90;;;;;;4188718;28;20166;-82
2021/07/22 10:14:36;;;;;;;13.38;10.40;;;24.30;99.90;;;;;;4212127;28;20121;-83
2021/07/22 10:16:38;;;;;;;11.13;10.00;;;24.20;99.90;;;;;;4214201;28;20028;-82
2021/07/22 10:18:47;;;;;;;10.88;9.85;;;25.00;99.90;;;;;;4193138;28;20033;-82